Home > Products > Valid Products > TAF

000
FTUS41 KBTV 251700
TAFMSS
TAF
KMSS 251726Z 2518/2618 23010G20KT P6SM SCT200
     FM260000 23008KT P6SM SCT120 BKN200
     FM261300 23010KT P6SM SCT060 BKN120=



000
FTUS41 KBTV 251700
TAFSLK
TAF
KSLK 251726Z 2518/2618 24010G17KT P6SM BKN045
     FM260000 23003KT P6SM SCT200
      TEMPO 2607/2611 3SM BR SCT002
     FM261300 23010KT P6SM SCT045 BKN120=



000
FTUS41 KBTV 251700
TAFMPV
TAF
KMPV 251726Z 2518/2618 28007G15KT P6SM SCT060
     FM260000 VRB02KT P6SM SKC
     FM260600 00000KT 6SM BR SCT001
     FM260800 00000KT 1/2SM FG VV001
     FM261200 VRB03KT 3SM BR SCT001
     FM261300 22008KT P6SM SCT050 BKN200=



000
FTUS41 KBTV 251700
TAFBTV
TAF
KBTV 251726Z 2518/2618 22009KT P6SM FEW050
     FM260100 18006KT P6SM SCT200
     FM261400 19009KT P6SM SCT050 BKN200=



000
FTUS41 KBTV 251100
TAFBTV
TAF
KBTV 251120Z 2512/2612 VRB03KT P6SM SKC
     FM251400 22009KT P6SM FEW050
     FM260200 18006KT P6SM SCT200=



000
FTUS41 KBTV 251100
TAFMPV
TAF
KMPV 251120Z 2512/2612 25007KT P6SM SCT060
     FM260000 VRB02KT P6SM SKC
     FM260600 00000KT 6SM BR SCT001=



000
FTUS41 KBTV 251100
TAFSLK
TAF
KSLK 251120Z 2512/2612 00000KT P6SM SKC
     FM251300 26009KT P6SM SCT060
     FM260400 23006KT P6SM SCT120 BKN250=



000
FTUS41 KBTV 251100
TAFMSS
TAF
KMSS 251120Z 2512/2612 22006KT P6SM SCT120
     FM251500 23010G20KT P6SM SKC
     FM260000 23008KT P6SM SCT120 BKN250=



000
FTUS41 KBTV 250500
TAFMPV
TAF
KMPV 250520Z 2506/2606 28004KT P6SM SKC
     FM250800 00000KT 1/2SM FG VV001
     FM251200 28007KT P6SM SCT040=



000
FTUS41 KBTV 250500
TAFSLK
TAF
KSLK 250520Z 2506/2606 00000KT P6SM SKC
     FM250700 00000KT 1SM BR SCT001
      TEMPO 2508/2512 1/2SM FG VV001
     FM251300 26009KT P6SM SCT040=



000
FTUS41 KBTV 250500
TAFBTV
TAF
KBTV 250520Z 2506/2606 VRB03KT P6SM SKC
     FM251500 23007KT P6SM SCT050=



000
FTUS41 KBTV 250500
TAFMSS
TAF
KMSS 250520Z 2506/2606 22006KT P6SM SCT120
     FM251500 23010G20KT P6SM SKC
     FM260000 23006KT P6SM SCT250=



000
FTUS41 KBTV 250200 AAA
TAFSLK
TAF AMD
KSLK 250242Z 2503/2524 00000KT P6SM SKC
      TEMPO 2507/2511 1SM BR BKN001
     FM251300 26009KT P6SM SCT040=



000
FTUS41 KBTV 250200 AAA
TAFMSS
TAF AMD
KMSS 250238Z 2503/2524 20004KT P6SM SKC
     FM251600 23010G16KT P6SM SKC=



000
FTUS41 KBTV 242300
TAFBTV
TAF
KBTV 242325Z 2500/2524 VRB03KT P6SM SKC
     FM251500 23007KT P6SM SCT050=



000
FTUS41 KBTV 242300
TAFMSS
TAF
KMSS 242325Z 2500/2524 24004KT P6SM SKC
      TEMPO 2507/2511 1SM BR SCT001
     FM251600 23010G16KT P6SM SKC=



000
FTUS41 KBTV 242300
TAFMPV
TAF
KMPV 242325Z 2500/2524 28004KT P6SM SKC
     FM250800 00000KT 1/2SM FG OVC001
     FM251200 28007KT P6SM SCT040=



000
FTUS41 KBTV 242300
TAFSLK
TAF
KSLK 242325Z 2500/2524 VRB03KT P6SM SKC
     FM250800 VRB03KT 5SM BR SCT006
     FM251200 26009KT P6SM SCT040=



000
FTUS41 KBTV 241700
TAFBTV
TAF
KBTV 241725Z 2418/2518 35009KT P6SM SCT045
     FM250000 VRB03KT P6SM SKC
     FM251500 24007KT P6SM SCT050=



000
FTUS41 KBTV 241700
TAFMSS
TAF
KMSS 241725Z 2418/2518 29008KT P6SM SCT040
     FM250700 22008KT P6SM SCT040=



000
FTUS41 KBTV 241700
TAFMPV
TAF
KMPV 241725Z 2418/2518 33013KT P6SM SCT045
     FM250000 28004KT P6SM SKC
     FM250900 VRB03KT 3SM BR BKN008
     FM251100 28007KT P6SM SCT040=



000
FTUS41 KBTV 241700
TAFSLK
TAF
KSLK 241725Z 2418/2518 31008KT P6SM SCT040
     FM250000 VRB03KT P6SM SKC
     FM250800 VRB03KT 5SM BR SCT006
     FM251200 26009KT P6SM SCT040=



000
FTUS41 KBTV 241100
TAFMPV
TAF
KMPV 241120Z 2412/2512 34008KT P6SM SCT060 SCT250
     FM250000 VRB02KT P6SM SKC
     FM250400 00000KT 6SM BR SKC=



000
FTUS41 KBTV 241100
TAFBTV
TAF
KBTV 241120Z 2412/2512 35008KT P6SM SCT060 BKN090
     FM250000 VRB04KT P6SM SKC=



000
FTUS41 KBTV 241100
TAFSLK
TAF
KSLK 241120Z 2412/2512 34010KT P6SM SCT060
     FM250400 00000KT 6SM BR SKC=



000
FTUS41 KBTV 241100
TAFMSS
TAF
KMSS 241120Z 2412/2512 33005KT P6SM BKN060
     FM250000 VRB03KT P6SM SKC
     FM250300 23004KT P6SM SKC=



000
FTUS41 KBTV 240500
TAFSLK
TAF
KSLK 240520Z 2406/2506 35005KT P6SM BKN050
     FM241400 34010KT P6SM SCT060
     FM250400 00000KT 6SM BR SKC=



000
FTUS41 KBTV 240500
TAFBTV
TAF
KBTV 240520Z 2406/2506 35006KT P6SM BKN060
     FM241300 36010G20KT P6SM FEW060
     FM250000 VRB04KT P6SM SKC=



000
FTUS41 KBTV 240500
TAFMSS
TAF
KMSS 240520Z 2406/2506 33005KT P6SM SKC
     FM241300 34010KT P6SM FEW060
     FM250000 VRB03KT P6SM SKC
     FM250300 23004KT P6SM SKC=



000
FTUS41 KBTV 240500
TAFMPV
TAF
KMPV 240520Z 2406/2506 31008KT P6SM BKN035 OVC050
     FM241300 35010KT P6SM SCT040
     FM250400 00000KT 6SM BR SKC=



000
FTUS41 KBTV 232300
TAFBTV
TAF
KBTV 232324Z 2400/2424 VRB05KT P6SM BKN035 BKN045 OVC070
      TEMPO 2400/2404 6SM BR SCT025 OVC035
     FM240500 35008KT P6SM SCT025 BKN080
     FM241300 33010KT P6SM SCT060=



000
FTUS41 KBTV 232300
TAFSLK
TAF
KSLK 232324Z 2400/2424 VRB04KT P6SM SCT030 OVC040
      TEMPO 2400/2403 4SM BR SCT015 OVC025
     FM240300 35005KT P6SM SCT025 BKN050
     FM241400 34010KT P6SM SCT060=



000
FTUS41 KBTV 232300
TAFMPV
TAF
KMPV 232324Z 2400/2424 VRB03KT 6SM BR VCSH SCT030 BKN035 OVC080
      TEMPO 2400/2404 1SM SHRA BR BKN022
     FM240500 35008KT P6SM SCT025 BKN050
     FM241300 33010KT P6SM SCT040=



000
FTUS41 KBTV 232300
TAFMSS
TAF
KMSS 232324Z 2400/2424 33009KT P6SM BKN040 OVC070
     FM240200 02005KT P6SM SCT025 BKN050
     FM241300 34010KT P6SM SCT060
     FM241800 32007KT P6SM FEW050=



000
FTUS41 KBTV 232100 AAB
TAFSLK
TAF AMD
KSLK 232146Z 2322/2418 VRB03KT 5SM BR BKN017 OVC025
      TEMPO 2322/2402 6SM BR SCT015 OVC025
     FM240300 35004KT P6SM SCT025 BKN050
     FM241400 34010KT P6SM SCT060=



000
FTUS41 KBTV 232100 AAB
TAFMSS
TAF AMD
KMSS 232141Z 2322/2418 31009KT P6SM BKN040 OVC070
     FM240200 02005KT P6SM SCT025 BKN050
     FM241500 34008KT P6SM SCT060=



000
FTUS41 KBTV 232100 AAC
TAFMPV
TAF AMD
KMPV 232136Z 2322/2418 VRB03KT 5SM TS SCT020 BKN035CB OVC080
      TEMPO 2322/2323 6SM BR
     FM232300 VRB03KT P6SM -SHRA SCT025 BKN035 OVC080
     FM240500 35008KT P6SM SCT025 BKN050
     FM241300 34010KT P6SM SCT060=



000
FTUS41 KBTV 232100 AAB
TAFBTV
TAF AMD
KBTV 232130Z 2322/2418 VRB03KT P6SM BKN015 OVC035
      TEMPO 2322/2402 6SM -SHRA BR SCT015 OVC035
     FM240200 35008KT P6SM SCT025 BKN080
     FM241300 33010KT P6SM SCT060=



000
FTUS41 KBTV 232000 AAB
TAFMPV
TAF AMD
KMPV 232032Z 2321/2418 32010G20KT P6SM VCSH BKN040 OVC080
      TEMPO 2321/2322 3/4SM +TSRA BR BKN007CB
     FM232300 31010KT P6SM SCT025 BKN050
     FM240500 35008KT P6SM SCT025 BKN050
     FM241300 34010KT P6SM SCT060=



000
FTUS41 KBTV 232000 AAA
TAFBTV
TAF AMD
KBTV 232000Z 2320/2418 31011G18KT P6SM SHRA BKN040
      TEMPO 2320/2322 2SM RA
     FM240200 35008KT P6SM SCT025 BKN080
     FM241300 33010KT P6SM SCT060=



000
FTUS41 KBTV 231900 AAA
TAFMPV
TAF AMD
KMPV 231959Z 2320/2418 32010G20KT P6SM VCSH BKN040 OVC080
      TEMPO 2320/2322 1SM TSRA BR BKN020CB
     FM232300 31010KT P6SM SCT025 BKN050
     FM240500 35008KT P6SM SCT025 BKN050
     FM241300 34010KT P6SM SCT060=



000
FTUS41 KBTV 231900 AAA
TAFSLK
TAF AMD
KSLK 231958Z 2320/2418 22012G20KT P6SM BKN025 OVC050
     FM232100 31010KT P6SM SCT035 BKN050
     FM240300 35004KT P6SM SCT025 BKN050
     FM241400 34010KT P6SM SCT060=



000
FTUS41 KBTV 231900 AAA
TAFMSS
TAF AMD
KMSS 231958Z 2320/2418 31010G20KT P6SM FEW040 OVC050
     FM240200 02005KT P6SM SCT025 BKN050
     FM241500 34008KT P6SM SCT060=



000
FTUS41 KBTV 231700
TAFMSS
TAF
KMSS 231736Z 2318/2418 23010KT P6SM VCSH BKN030 OVC050
     FM232000 31010KT P6SM BKN040 OVC050
     FM240200 02005KT P6SM SCT025 BKN050
     FM241500 34008KT P6SM SCT060=



000
FTUS41 KBTV 231700
TAFSLK
TAF
KSLK 231736Z 2318/2418 22012G20KT P6SM VCSH BKN020 OVC050
      TEMPO 2318/2321 1SM TSRA BR BKN020CB
     FM232100 31010KT P6SM SCT035 BKN050
     FM240300 35004KT P6SM SCT025 BKN050
     FM241400 34010KT P6SM SCT060=



000
FTUS41 KBTV 231700
TAFBTV
TAF
KBTV 231736Z 2318/2418 20012G22KT P6SM VCSH BKN050 OVC080
      TEMPO 2318/2320 1SM TSRA BR BKN020CB
     FM232000 31011G18KT P6SM BKN040
     FM240200 35008KT P6SM SCT025 BKN080
     FM241300 33010KT P6SM SCT060=



000
FTUS41 KBTV 231700
TAFMPV
TAF
KMPV 231736Z 2318/2418 22010G20KT P6SM VCSH BKN040 OVC080
      TEMPO 2320/2322 1SM TSRA BR BKN020CB
     FM232300 31010KT P6SM SCT025 BKN050
     FM240500 35008KT P6SM SCT025 BKN050
     FM241300 34010KT P6SM SCT060=



000
FTUS41 KBTV 231600 AAB
TAFBTV
TAF AMD
KBTV 231634Z 2317/2412 20012G22KT P6SM VCSH BKN050 OVC080
      TEMPO 2317/2319 3SM -TSRA BKN020CB
     FM232000 31011G18KT P6SM BKN040
     FM240200 35008KT P6SM SCT025 BKN080=



000
FTUS41 KBTV 231600 AAC
TAFMSS
TAF AMD
KMSS 231621Z 2316/2412 23010KT P6SM VCSH BKN030 OVC050
     FM231900 31010KT P6SM BKN040 OVC050
     FM240200 02005KT P6SM SCT025 BKN050=



000
FTUS41 KBTV 231600 AAB
TAFSLK
TAF AMD
KSLK 231620Z 2316/2412 22012G20KT P6SM VCSH BKN020 OVC050
      TEMPO 2316/2318 3SM TSRA BR BKN015CB
     FM232000 31010KT P6SM SCT035 BKN050
     FM240300 35004KT P6SM SCT025 BKN050=



000
FTUS41 KBTV 231500 AAA
TAFBTV
TAF AMD
KBTV 231559Z 2316/2412 20012G22KT P6SM VCSH BKN050 OVC080
      TEMPO 2316/2318 3SM -TSRA BKN020CB
     FM232000 31011G18KT P6SM BKN040
     FM240200 35008KT P6SM SCT025 BKN080=



000
FTUS41 KBTV 231300 AAB
TAFMSS
TAF AMD
KMSS 231312Z 2313/2412 23010KT 6SM -SHRA BKN030 OVC050
      TEMPO 2313/2315 1 1/2SM RA BR OVC030
     FM231900 31010KT P6SM BKN040 OVC050
     FM240200 02005KT P6SM SCT025 BKN050=



000
FTUS41 KBTV 231300 AAA
TAFMSS
TAF AMD
KMSS 231303Z 2313/2412 23010KT 6SM -SHRA BKN030 OVC050
     FM231900 31010KT P6SM BKN040 OVC050
     FM240200 02005KT P6SM SCT025 BKN050=



000
FTUS41 KBTV 231300 AAA
TAFBTV
TAF AMD
KBTV 231303Z 2313/2412 18012G24KT P6SM SCT050 SCT100
     FM231500 20012G22KT P6SM VCSH BKN040 OVC080
      TEMPO 2315/2317 3SM -TSRA BKN040CB
     FM232000 31011G18KT P6SM BKN040
     FM240200 35008KT P6SM SCT025 BKN080=



000
FTUS41 KBTV 231300 AAA
TAFSLK
TAF AMD
KSLK 231302Z 2313/2412 22012G20KT P6SM VCSH BKN020 OVC050
      TEMPO 2314/2316 4SM -TSRA BKN040CB
     FM232000 31010KT P6SM SCT035 BKN050
     FM240300 35004KT P6SM SCT025 BKN050=



000
FTUS41 KBTV 231100
TAFMPV
TAF
KMPV 231120Z 2312/2412 20007KT P6SM FEW050
     FM231700 22010G20KT P6SM VCSH BKN040 OVC080
     FM240000 31010KT P6SM SCT025 BKN050=



000
FTUS41 KBTV 231100
TAFMSS
TAF
KMSS 231120Z 2312/2412 22011KT P6SM VCTS BKN050CB
      TEMPO 2312/2313 3SM -TSRA
     FM231400 23012KT 4SM -SHRA BKN050
     FM231900 31010KT P6SM BKN040 OVC050
     FM240200 02005KT P6SM SCT025 BKN050=



000
FTUS41 KBTV 231100
TAFBTV
TAF
KBTV 231120Z 2312/2412 18010KT P6SM SCT050 SCT100
     FM231500 20012G22KT P6SM VCSH BKN040 OVC080
      TEMPO 2315/2317 3SM -TSRA BKN040CB
     FM232000 31011G18KT P6SM BKN040
     FM240200 35008KT P6SM SCT025 BKN080=



000
FTUS41 KBTV 231100
TAFSLK
TAF
KSLK 231120Z 2312/2412 23006KT P6SM FEW050 SCT100
     FM231400 23011G17KT P6SM VCSH BKN050 OVC080
      TEMPO 2314/2316 4SM -TSRA BKN040CB
     FM232000 31010KT P6SM SCT035 BKN050
     FM240300 35004KT P6SM SCT025 BKN050=



000
FTUS41 KBTV 231000 AAA
TAFMSS
TAF AMD
KMSS 231008Z 2310/2406 22008KT P6SM VCTS SCT040CB BKN060
      TEMPO 2310/2312 2SM -TSRA
     FM231300 23011KT P6SM VCSH BKN050
     FM231900 31010KT P6SM BKN040 OVC050
     FM240200 02005KT P6SM SCT025 BKN080=



000
FTUS41 KBTV 230500
TAFSLK
TAF
KSLK 230520Z 2306/2406 00000KT 6SM BR SKC WS020/23030KT
     FM231100 23010KT P6SM SCT100
     FM231400 23011G17KT P6SM VCSH BKN040 OVC080
     FM232000 31010KT P6SM SCT035 BKN050
     FM240300 35004KT P6SM SCT025 BKN090=



000
FTUS41 KBTV 230500
TAFBTV
TAF
KBTV 230520Z 2306/2406 18006KT P6SM SKC
     FM231200 18010KT P6SM SCT100
     FM231400 20012G22KT P6SM VCSH BKN040 OVC080
     FM232100 31011G18KT P6SM BKN040
     FM240200 35008KT P6SM SCT025 BKN080=



000
FTUS41 KBTV 230500
TAFMPV
TAF
KMPV 230520Z 2306/2406 19006KT P6SM SKC
     FM231200 20007KT P6SM SCT100
     FM231600 22010G20KT P6SM VCSH BKN040 OVC080
     FM240000 31010KT P6SM SCT025 BKN080=



000
FTUS41 KBTV 230500
TAFMSS
TAF
KMSS 230520Z 2306/2406 22007KT P6SM SKC
     FM231000 22008KT P6SM SCT100
     FM231300 23011KT P6SM VCSH BKN050
     FM231900 31010KT P6SM BKN040 OVC050
     FM240200 02005KT P6SM SCT025 BKN080=



000
FTUS41 KBTV 222300
TAFMSS
TAF
KMSS 222320Z 2300/2324 22007KT P6SM SKC
     FM231000 22008KT P6SM SCT100
     FM231300 23011KT P6SM VCSH BKN050
     FM231500 25012KT 6SM -SHRA BR SCT030 OVC045
     FM231900 30010KT P6SM VCSH BKN040 OVC050=



000
FTUS41 KBTV 222300
TAFSLK
TAF
KSLK 222320Z 2300/2324 24006KT P6SM SCT250
     FM230200 VRB03KT P6SM SKC
     FM230800 23005KT 5SM BR SCT008
     FM231100 23010KT P6SM SKC
     FM231300 23011G17KT P6SM BKN045
     FM231700 24011G18KT 6SM -SHRA BR OVC035=



000
FTUS41 KBTV 222300
TAFBTV
TAF
KBTV 222320Z 2300/2324 19005KT P6SM BKN250
     FM230200 18006KT P6SM SKC
     FM231200 20012G22KT P6SM SCT100
     FM231700 22011G18KT 6SM -SHRA BR BKN045=



000
FTUS41 KBTV 222300
TAFMPV
TAF
KMPV 222320Z 2300/2324 21005KT P6SM FEW040 BKN250
     FM230200 VRB03KT P6SM SKC
     FM231200 20007KT P6SM FEW100
     FM231600 24010G18KT P6SM VCSH BKN050
     FM231900 25009KT 6SM -SHRA BR BKN040 OVC060=



    US Dept of Commerce
    National Oceanic and Atmospheric Administration
    National Weather Service
    1325 East West Highway
    Silver Spring, MD 20910
    Page Author: NWS Internet Services Team
Disclaimer
Information Quality
Credits
Glossary
Privacy Policy
Freedom of Information Act (FOIA)
About Us
Career Opportunities